Time;durP1;ratioP1;P1;durP2;ratioP2;P2;SDS_P1;SDS_P2;PMS_P1;PMS_P2;Temp;Humidity;BMP_temperature;BMP_pressure;BME280_temperature;BME280_humidity;BME280_pressure;Samples;Min_cycle;Max_cycle;Signal;HPM_P1;HPM_P2
2023/03/15 00:01:29;;;;;;;;;;;;;;;3.49;78.72;98170.66;5068762;28;19917;-83
2023/03/15 00:03:55;;;;;;;;;;;;;;;3.36;79.25;98180.53;5072649;28;19928;-83
2023/03/15 00:06:20;;;;;;;;;;;;;;;3.31;78.17;98177.72;5051903;28;20030;-83
2023/03/15 00:08:46;;;;;;;;;;;;;;;3.66;78.97;98182.22;5050552;28;19970;-84
2023/03/15 00:11:12;;;;;;;;;;;;;;;3.51;79.48;98176.50;5071426;28;20231;-84
2023/03/15 00:13:37;;;;;;;;;;;;;;;3.37;76.81;98190.03;5086704;28;19921;-84
2023/03/15 00:16:02;;;;;;;;;;;;;;;3.51;78.82;98181.78;5054625;28;19924;-84
2023/03/15 00:18:28;;;;;;;;;;;;;;;3.34;78.31;98190.50;5066131;28;19927;-83
2023/03/15 00:20:54;;;;;;;;;;;;;;;3.39;79.30;98187.97;5070135;28;20319;-84
2023/03/15 00:23:19;;;;;;;;;;;;;;;3.35;78.60;98192.91;5053933;28;19973;-84
2023/03/15 00:25:45;;;;;;;;;;;;;;;3.58;79.19;98192.25;5071263;28;19932;-83
2023/03/15 00:28:10;;;;;;;;;;;;;;;3.54;78.97;98194.50;5073139;28;19931;-83
2023/03/15 00:30:36;;;;;;;;;;;;;;;3.59;78.96;98188.59;5069945;28;19921;-83
2023/03/15 00:33:04;;;;;;;;;;;;;;;3.62;78.44;98202.16;5066400;28;19929;-84
2023/03/15 00:35:30;;;;;;;;;;;;;;;3.52;78.13;98207.13;5069636;28;19924;-83
2023/03/15 00:37:55;;;;;;;;;;;;;;;3.50;78.18;98203.09;5065694;28;19921;-83
2023/03/15 00:40:21;;;;;;;;;;;;;;;3.39;77.84;98201.16;5068152;28;19964;-83
2023/03/15 00:42:49;;;;;;;;;;;;;;;3.29;78.21;98208.78;5070053;28;20357;-84
2023/03/15 00:45:15;;;;;;;;;;;;;;;3.32;78.91;98208.38;5065171;28;19920;-83
2023/03/15 00:47:40;;;;;;;;;;;;;;;3.34;78.61;98214.22;5066716;28;20376;-82
2023/03/15 00:50:06;;;;;;;;;;;;;;;3.33;78.17;98223.16;5071338;28;19921;-82
2023/03/15 00:52:35;;;;;;;;;;;;;;;2.94;77.53;98229.56;5069644;28;19920;-84
2023/03/15 00:55:00;;;;;;;;;;;;;;;3.25;78.47;98224.25;5071793;28;19920;-83
2023/03/15 00:57:26;;;;;;;;;;;;;;;3.11;78.25;98224.56;5067340;28;19931;-83
2023/03/15 00:59:52;;;;;;;;;;;;;;;3.19;78.68;98233.00;5069244;28;19928;-83
2023/03/15 01:02:20;;;;;;;;;;;;;;;3.20;79.03;98241.72;5067514;28;19943;-84
2023/03/15 01:04:46;;;;;;;;;;;;;;;3.21;78.39;98232.81;5064911;28;19997;-84
2023/03/15 01:07:11;;;;;;;;;;;;;;;3.21;78.29;98232.81;5070289;28;20010;-83
2023/03/15 01:09:36;;;;;;;;;;;;;;;3.16;78.29;98241.38;5049912;28;19939;-83
2023/03/15 01:12:02;;;;;;;;;;;;;;;3.23;78.04;98242.13;5066602;28;20011;-83
2023/03/15 01:14:27;;;;;;;;;;;;;;;3.17;78.44;98242.19;5070282;28;19927;-83
2023/03/15 01:16:52;;;;;;;;;;;;;;;3.24;77.84;98242.91;5068690;28;19963;-82
2023/03/15 01:19:17;;;;;;;;;;;;;;;3.16;78.19;98240.56;5068213;28;19920;-84
2023/03/15 01:21:43;;;;;;;;;;;;;;;3.25;77.94;98228.72;5068317;28;19921;-83
2023/03/15 01:24:12;;;;;;;;;;;;;;;2.80;77.25;98241.22;5053931;28;20459;-83
2023/03/15 01:26:38;;;;;;;;;;;;;;;3.12;78.49;98242.81;5067843;28;20562;-83
2023/03/15 01:29:03;;;;;;;;;;;;;;;3.30;78.00;98239.44;5066783;28;19955;-84
2023/03/15 01:31:29;;;;;;;;;;;;;;;2.89;77.62;98235.50;5070239;28;20381;-83
2023/03/15 01:33:55;;;;;;;;;;;;;;;3.28;78.55;98241.44;5055384;28;19928;-83
2023/03/15 01:36:20;;;;;;;;;;;;;;;3.22;78.10;98242.31;5070441;28;19920;-82
2023/03/15 01:38:46;;;;;;;;;;;;;;;3.28;77.80;98250.16;5068769;28;20300;-83
2023/03/15 01:41:11;;;;;;;;;;;;;;;3.27;77.89;98242.47;5069233;28;19995;-83
2023/03/15 01:43:37;;;;;;;;;;;;;;;3.18;77.90;98241.94;5069269;28;20007;-83
2023/03/15 01:46:02;;;;;;;;;;;;;;;3.13;77.98;98251.50;5050476;28;19931;-83
2023/03/15 01:48:48;;;;;;;;;;;;;;;3.19;78.40;98243.53;5069589;28;20015;-82
2023/03/15 01:51:21;;;;;;;;;;;;;;;3.24;77.85;98243.72;5082492;28;19916;-82
2023/03/15 01:53:49;;;;;;;;;;;;;;;2.90;77.16;98249.47;5070235;28;19944;-82
2023/03/15 01:56:15;;;;;;;;;;;;;;;2.94;77.99;98250.66;5069562;28;19971;-83
2023/03/15 01:58:42;;;;;;;;;;;;;;;2.95;78.22;98247.81;5046375;28;19968;-83
2023/03/15 02:01:08;;;;;;;;;;;;;;;2.88;77.82;98247.03;5068373;28;19974;-82
2023/03/15 02:03:35;;;;;;;;;;;;;;;2.92;77.91;98256.16;5071454;28;20316;-83
2023/03/15 02:06:02;;;;;;;;;;;;;;;3.00;77.97;98249.78;5072270;28;20042;-83
2023/03/15 02:08:31;;;;;;;;;;;;;;;3.15;78.11;98257.38;5052902;28;20337;-82
2023/03/15 02:10:58;;;;;;;;;;;;;;;3.20;77.52;98258.34;5073919;28;19916;-83
2023/03/15 02:13:24;;;;;;;;;;;;;;;3.02;77.67;98264.38;5083408;28;19925;-83
2023/03/15 02:15:53;;;;;;;;;;;;;;;3.07;78.59;98268.19;5062734;28;19933;-83
2023/03/15 02:18:19;;;;;;;;;;;;;;;2.93;77.59;98268.28;5051975;28;20392;-84
2023/03/15 02:20:59;;;;;;;;;;;;;;;3.08;78.00;98264.56;5068271;28;19928;-83
2023/03/15 02:23:25;;;;;;;;;;;;;;;3.21;78.14;98278.41;5069967;28;20011;-84
2023/03/15 02:25:59;;;;;;;;;;;;;;;3.16;77.79;98272.19;5066358;28;20359;-83
2023/03/15 02:28:25;;;;;;;;;;;;;;;3.18;77.98;98278.06;5071832;28;19926;-84
2023/03/15 02:30:50;;;;;;;;;;;;;;;3.18;78.52;98270.13;5062129;28;19924;-84
2023/03/15 02:33:21;;;;;;;;;;;;;;;3.19;78.46;98267.28;5072680;28;20295;-83
2023/03/15 02:35:47;;;;;;;;;;;;;;;3.00;77.76;98276.16;5066345;28;19939;-83
2023/03/15 02:38:12;;;;;;;;;;;;;;;3.24;78.65;98280.63;5069989;28;19924;-84
2023/03/15 02:40:37;;;;;;;;;;;;;;;3.00;78.26;98276.16;5069544;28;19924;-83
2023/03/15 02:43:08;;;;;;;;;;;;;;;3.13;78.67;98283.97;5066782;28;19999;-82
2023/03/15 02:45:34;;;;;;;;;;;;;;;2.88;77.46;98277.88;5069887;28;20273;-83
2023/03/15 02:48:01;;;;;;;;;;;;;;;3.13;78.43;98276.06;5066941;28;19931;-83
2023/03/15 02:50:26;;;;;;;;;;;;;;;3.06;78.53;98291.09;5070573;28;19920;-83
2023/03/15 02:52:51;;;;;;;;;;;;;;;2.94;78.28;98282.28;5071594;28;19967;-83
2023/03/15 02:55:18;;;;;;;;;;;;;;;2.91;78.33;98283.53;5051164;28;19979;-84
2023/03/15 02:57:43;;;;;;;;;;;;;;;3.05;78.93;98281.59;5065180;28;19932;-83
2023/03/15 03:00:14;;;;;;;;;;;;;;;3.09;78.39;98281.97;5069543;28;20114;-83
2023/03/15 03:02:41;;;;;;;;;;;;;;;3.18;78.74;98284.13;5068509;28;20019;-83
2023/03/15 03:05:06;;;;;;;;;;;;;;;3.06;78.77;98293.75;5070176;28;20273;-82
2023/03/15 03:07:32;;;;;;;;;;;;;;;3.01;79.40;98302.28;5068588;28;19935;-83
2023/03/15 03:09:57;;;;;;;;;;;;;;;2.90;78.57;98297.72;5052674;28;20388;-83
2023/03/15 03:12:22;;;;;;;;;;;;;;;3.08;78.93;98306.72;5069753;28;19931;-84
2023/03/15 03:14:47;;;;;;;;;;;;;;;3.03;78.82;98313.47;5067993;28;19924;-83
2023/03/15 03:17:13;;;;;;;;;;;;;;;3.01;79.55;98310.19;5071158;28;20432;-83
2023/03/15 03:19:38;;;;;;;;;;;;;;;2.85;78.89;98315.19;5070205;28;19920;-82
2023/03/15 03:22:04;;;;;;;;;;;;;;;2.95;79.55;98315.50;5069695;28;19921;-83
2023/03/15 03:24:30;;;;;;;;;;;;;;;2.95;79.55;98323.41;5069961;28;19931;-83
2023/03/15 03:26:56;;;;;;;;;;;;;;;3.03;79.63;98326.63;5068854;28;20375;-83
2023/03/15 03:29:22;;;;;;;;;;;;;;;3.06;79.37;98333.28;5069405;28;19932;-82
2023/03/15 03:31:47;;;;;;;;;;;;;;;2.99;79.12;98335.97;5061947;28;19920;-83
2023/03/15 03:34:14;;;;;;;;;;;;;;;2.87;79.34;98331.59;5067756;28;20013;-82
2023/03/15 03:36:39;;;;;;;;;;;;;;;2.86;80.31;98341.31;5080244;28;19935;-83
2023/03/15 03:39:05;;;;;;;;;;;;;;;2.95;80.01;98329.50;5066560;28;20376;-83
2023/03/15 03:41:30;;;;;;;;;;;;;;;2.84;81.10;98338.09;5067010;28;19924;-83
2023/03/15 03:43:55;;;;;;;;;;;;;;;3.03;80.24;98326.63;5062937;28;21809;-82
2023/03/15 03:46:21;;;;;;;;;;;;;;;2.86;80.98;98325.50;5062758;28;19917;-84
2023/03/15 03:48:46;;;;;;;;;;;;;;;2.99;80.54;98320.16;5067067;28;20011;-83
2023/03/15 03:51:11;;;;;;;;;;;;;;;2.98;80.15;98329.09;5064578;28;19947;-83
2023/03/15 03:53:36;;;;;;;;;;;;;;;3.01;80.33;98327.88;5067240;28;19931;-84
2023/03/15 03:56:05;;;;;;;;;;;;;;;3.01;80.09;98333.91;5064168;28;20019;-84
2023/03/15 03:58:30;;;;;;;;;;;;;;;2.91;80.18;98330.16;5070375;28;20379;-85
2023/03/15 04:00:55;;;;;;;;;;;;;;;2.96;80.73;98340.88;5069404;28;19928;-83
2023/03/15 04:03:25;;;;;;;;;;;;;;;2.96;80.22;98341.69;5071150;28;19916;-84
2023/03/15 04:05:51;;;;;;;;;;;;;;;2.93;80.13;98347.38;5072925;28;19925;-83
2023/03/15 04:08:16;;;;;;;;;;;;;;;2.89;80.22;98346.19;5069875;28;20436;-83
2023/03/15 04:10:42;;;;;;;;;;;;;;;2.87;80.45;98352.66;5071227;28;19920;-83
2023/03/15 04:13:07;;;;;;;;;;;;;;;2.96;80.60;98357.50;5088723;28;19972;-83
2023/03/15 04:15:32;;;;;;;;;;;;;;;2.99;80.21;98364.97;5070998;28;19975;-83
2023/03/15 04:17:57;;;;;;;;;;;;;;;2.68;80.60;98366.75;5069886;28;19920;-83
2023/03/15 04:20:24;;;;;;;;;;;;;;;2.58;80.86;98358.50;5067045;28;19917;-84
2023/03/15 04:22:49;;;;;;;;;;;;;;;2.89;81.08;98366.44;5073525;28;19924;-84
2023/03/15 04:25:18;;;;;;;;;;;;;;;2.68;80.99;98372.84;5073166;28;20308;-83
2023/03/15 04:27:44;;;;;;;;;;;;;;;2.96;80.67;98381.22;5071023;28;19922;-84
2023/03/15 04:30:09;;;;;;;;;;;;;;;2.72;81.00;98378.50;5073112;28;19983;-84
2023/03/15 04:32:35;;;;;;;;;;;;;;;2.84;80.70;98369.72;5070038;28;19982;-83
2023/03/15 04:35:00;;;;;;;;;;;;;;;2.90;80.80;98389.97;5070073;28;19929;-83
2023/03/15 04:37:26;;;;;;;;;;;;;;;2.86;80.76;98386.13;5073596;28;20376;-84
2023/03/15 04:39:51;;;;;;;;;;;;;;;2.67;81.28;98373.84;5071257;28;19928;-84
2023/03/15 04:42:17;;;;;;;;;;;;;;;2.70;80.68;98378.72;5056592;28;19928;-83
2023/03/15 04:44:42;;;;;;;;;;;;;;;2.79;81.00;98379.28;5056409;28;19928;-83
2023/03/15 04:47:07;;;;;;;;;;;;;;;2.82;81.15;98377.03;5052419;28;19920;-83
2023/03/15 04:49:33;;;;;;;;;;;;;;;2.84;80.66;98377.63;5074074;28;19927;-83
2023/03/15 04:51:58;;;;;;;;;;;;;;;2.79;80.81;98376.66;5069833;28;19920;-83
2023/03/15 04:54:23;;;;;;;;;;;;;;;2.80;80.53;98376.44;5052499;28;19965;-82
2023/03/15 04:56:49;;;;;;;;;;;;;;;2.62;81.04;98386.84;5070701;28;20288;-85
2023/03/15 04:59:14;;;;;;;;;;;;;;;2.73;80.83;98388.03;5071418;28;19932;-85
2023/03/15 05:01:39;;;;;;;;;;;;;;;2.77;81.35;98384.78;5072887;28;19916;-84
2023/03/15 05:04:05;;;;;;;;;;;;;;;2.75;81.22;98386.78;5070554;28;19924;-83
2023/03/15 05:06:30;;;;;;;;;;;;;;;2.67;81.45;98402.00;5065137;28;20027;-83
2023/03/15 05:08:55;;;;;;;;;;;;;;;2.65;81.37;98396.97;5073945;28;20441;-84
2023/03/15 05:11:21;;;;;;;;;;;;;;;2.68;81.10;98409.72;5054220;28;19928;-84
2023/03/15 05:13:46;;;;;;;;;;;;;;;2.79;81.20;98403.81;5074507;28;19980;-84
2023/03/15 05:16:11;;;;;;;;;;;;;;;2.83;81.11;98420.81;5068325;28;19928;-84
2023/03/15 05:18:37;;;;;;;;;;;;;;;2.84;80.99;98413.72;5069267;28;20018;-84
2023/03/15 05:21:04;;;;;;;;;;;;;;;2.70;81.11;98423.50;5056463;28;20589;-85
2023/03/15 05:23:31;;;;;;;;;;;;;;;2.73;81.55;98420.44;5053734;28;19956;-84
2023/03/15 05:25:56;;;;;;;;;;;;;;;2.74;81.29;98414.16;5069688;28;19938;-84
2023/03/15 05:28:22;;;;;;;;;;;;;;;2.79;81.10;98427.53;5065401;28;20062;-85
2023/03/15 05:30:48;;;;;;;;;;;;;;;2.79;81.42;98434.63;5069942;28;19959;-85
2023/03/15 05:33:13;;;;;;;;;;;;;;;2.83;81.35;98441.09;5064439;28;19942;-84
2023/03/15 05:35:38;;;;;;;;;;;;;;;2.88;81.20;98442.06;5063611;28;19920;-84
2023/03/15 05:38:04;;;;;;;;;;;;;;;2.70;81.80;98449.03;5045713;28;19991;-84
2023/03/15 05:40:30;;;;;;;;;;;;;;;2.59;81.77;98453.13;5067617;28;20296;-84
2023/03/15 05:42:55;;;;;;;;;;;;;;;2.57;82.19;98463.06;5064471;28;19924;-83
2023/03/15 05:45:21;;;;;;;;;;;;;;;2.81;82.10;98465.00;5051537;28;19931;-83
2023/03/15 05:47:46;;;;;;;;;;;;;;;2.52;82.19;98473.41;5061884;28;19928;-83
2023/03/15 05:50:11;;;;;;;;;;;;;;;2.71;82.55;98477.00;5063785;28;21271;-85
2023/03/15 05:52:37;;;;;;;;;;;;;;;2.77;82.59;98484.09;5052264;28;19927;-84
2023/03/15 05:55:02;;;;;;;;;;;;;;;2.66;82.59;98480.28;5068975;28;19929;-85
2023/03/15 05:57:27;;;;;;;;;;;;;;;2.51;83.21;98484.94;5070132;28;19936;-82
2023/03/15 05:59:53;;;;;;;;;;;;;;;2.47;82.83;98493.47;5049484;28;19931;-84
2023/03/15 06:02:18;;;;;;;;;;;;;;;2.64;83.54;98503.38;5067060;28;19971;-83
2023/03/15 06:04:43;;;;;;;;;;;;;;;2.91;82.03;98507.53;5051031;28;19925;-84
2023/03/15 06:07:08;;;;;;;;;;;;;;;2.54;82.52;98494.25;5055058;28;19928;-83
2023/03/15 06:09:34;;;;;;;;;;;;;;;2.81;82.65;98503.72;5058109;28;19924;-81
2023/03/15 06:11:59;;;;;;;;;;;;;;;2.87;82.55;98506.34;5070842;28;19928;-83
2023/03/15 06:14:27;;;;;;;;;;;;;;;2.79;82.74;98506.56;5050934;28;19931;-82
2023/03/15 06:16:53;;;;;;;;;;;;;;;2.96;82.42;98509.56;5072595;28;20407;-82
2023/03/15 06:19:18;;;;;;;;;;;;;;;2.71;82.25;98512.06;5071014;28;19925;-83
2023/03/15 06:21:44;;;;;;;;;;;;;;;2.89;82.02;98517.47;5071584;28;19925;-83
2023/03/15 06:24:09;;;;;;;;;;;;;;;2.71;82.72;98522.59;5073075;28;19920;-82
2023/03/15 06:26:35;;;;;;;;;;;;;;;2.46;82.39;98532.16;5072207;28;19981;-83
2023/03/15 06:29:00;;;;;;;;;;;;;;;2.73;82.65;98536.38;5069985;28;20299;-84
2023/03/15 06:31:25;;;;;;;;;;;;;;;2.66;83.36;98538.22;5048335;28;19920;-82
2023/03/15 06:33:50;;;;;;;;;;;;;;;2.49;83.57;98544.91;5071767;28;20317;-82
2023/03/15 06:36:16;;;;;;;;;;;;;;;2.68;83.46;98548.56;5070788;28;19982;-83
2023/03/15 06:38:41;;;;;;;;;;;;;;;2.82;82.91;98550.13;5066855;28;19978;-84
2023/03/15 06:41:07;;;;;;;;;;;;;;;2.85;82.23;98550.53;5065189;28;19965;-84
2023/03/15 06:43:33;;;;;;;;;;;;;;;2.59;82.48;98553.22;5070329;28;20335;-83
2023/03/15 06:45:58;;;;;;;;;;;;;;;2.89;83.26;98558.84;5067643;28;19962;-83
2023/03/15 06:48:25;;;;;;;;;;;;;;;2.53;82.03;98567.22;5066143;28;19921;-83
2023/03/15 06:50:50;;;;;;;;;;;;;;;2.59;82.56;98574.31;5064801;28;19921;-84
2023/03/15 06:53:15;;;;;;;;;;;;;;;2.41;82.72;98574.09;5071664;28;19920;-83
2023/03/15 06:55:41;;;;;;;;;;;;;;;2.65;84.09;98584.00;5071187;28;19982;-83
2023/03/15 06:58:06;;;;;;;;;;;;;;;2.43;83.99;98579.16;5067936;28;20239;-84
2023/03/15 07:00:32;;;;;;;;;;;;;;;2.55;83.62;98593.34;5062301;28;19928;-85
2023/03/15 07:02:57;;;;;;;;;;;;;;;2.24;85.21;98602.66;5068104;28;19920;-84
2023/03/15 07:05:22;;;;;;;;;;;;;;;2.40;84.61;98601.47;5068198;28;19951;-85
2023/03/15 07:07:47;;;;;;;;;;;;;;;2.40;84.39;98604.09;5050229;28;20380;-85
2023/03/15 07:10:13;;;;;;;;;;;;;;;2.86;82.95;98604.84;5065847;28;20398;-84
2023/03/15 07:12:38;;;;;;;;;;;;;;;2.35;84.26;98617.03;5063496;28;19935;-84
2023/03/15 07:15:03;;;;;;;;;;;;;;;2.29;84.61;98623.13;5046562;28;19925;-84
2023/03/15 07:17:29;;;;;;;;;;;;;;;1.92;86.62;98613.94;5045350;28;20359;-84
2023/03/15 07:19:54;;;;;;;;;;;;;;;2.31;85.97;98630.81;5079866;28;19967;-83
2023/03/15 07:22:21;;;;;;;;;;;;;;;2.53;84.70;98635.72;5064558;28;20029;-84
2023/03/15 07:24:47;;;;;;;;;;;;;;;2.57;85.02;98639.56;5060434;28;19925;-84
2023/03/15 07:27:12;;;;;;;;;;;;;;;2.55;85.16;98643.41;5061449;28;19962;-83
2023/03/15 07:29:37;;;;;;;;;;;;;;;2.65;84.87;98643.78;5060713;28;19921;-83
2023/03/15 07:32:03;;;;;;;;;;;;;;;2.45;84.86;98648.22;5050366;28;19920;-84
2023/03/15 07:34:28;;;;;;;;;;;;;;;2.50;85.92;98651.91;5064226;28;19924;-85
2023/03/15 07:36:53;;;;;;;;;;;;;;;2.96;84.60;98647.44;5063122;28;19930;-84
2023/03/15 07:39:19;;;;;;;;;;;;;;;3.02;84.39;98654.53;5065714;28;19916;-84
2023/03/15 07:41:44;;;;;;;;;;;;;;;2.58;84.17;98643.00;5065108;28;19935;-83
2023/03/15 07:44:09;;;;;;;;;;;;;;;2.77;85.52;98650.09;5063372;28;19927;-83
2023/03/15 07:46:34;;;;;;;;;;;;;;;2.67;85.85;98647.84;5070452;28;19943;-81
2023/03/15 07:49:00;;;;;;;;;;;;;;;3.01;84.79;98655.53;5069345;28;19977;-83
2023/03/15 07:51:25;;;;;;;;;;;;;;;3.06;84.40;98654.91;5073304;28;20491;-83
2023/03/15 07:53:50;;;;;;;;;;;;;;;2.94;84.42;98667.09;5070690;28;20395;-83
2023/03/15 07:56:16;;;;;;;;;;;;;;;3.07;84.39;98659.19;5070650;28;19934;-83
2023/03/15 07:58:41;;;;;;;;;;;;;;;3.24;83.63;98657.72;5073422;28;20015;-83
2023/03/15 08:01:08;;;;;;;;;;;;;;;3.30;83.33;98659.53;5069810;28;20025;-83
2023/03/15 08:03:33;;;;;;;;;;;;;;;3.24;82.39;98662.19;5071564;28;19920;-83
2023/03/15 08:05:58;;;;;;;;;;;;;;;3.14;81.08;98664.44;5076871;28;19987;-83
2023/03/15 08:08:25;;;;;;;;;;;;;;;3.16;81.21;98668.50;5075236;28;19963;-84
2023/03/15 08:10:50;;;;;;;;;;;;;;;2.84;81.15;98666.72;5076466;28;19981;-84
2023/03/15 08:13:15;;;;;;;;;;;;;;;2.91;81.82;98670.94;5074031;28;20351;-83
2023/03/15 08:15:43;;;;;;;;;;;;;;;2.55;81.59;98675.00;5077725;28;20018;-82
2023/03/15 08:18:08;;;;;;;;;;;;;;;2.77;82.56;98679.91;5077023;28;19916;-83
2023/03/15 08:20:34;;;;;;;;;;;;;;;2.64;82.04;98677.25;5076131;28;19935;-83
2023/03/15 08:23:00;;;;;;;;;;;;;;;2.69;82.49;98681.88;5077707;28;19970;-82
2023/03/15 08:25:26;;;;;;;;;;;;;;;2.67;81.55;98686.56;5060201;28;19950;-83
2023/03/15 08:27:51;;;;;;;;;;;;;;;2.46;82.47;98682.28;5075980;28;19927;-83
2023/03/15 08:30:17;;;;;;;;;;;;;;;3.09;81.67;98691.41;5070324;28;19920;-82
2023/03/15 08:32:43;;;;;;;;;;;;;;;3.14;80.98;98698.72;5075698;28;19921;-82
2023/03/15 08:35:11;;;;;;;;;;;;;;;2.89;81.59;98699.34;5074660;28;19959;-83
2023/03/15 08:37:36;;;;;;;;;;;;;;;2.96;80.92;98715.97;5075104;28;19964;-83
2023/03/15 08:40:08;;;;;;;;;;;;;;;3.24;80.77;98715.75;5075482;28;19916;-84
2023/03/15 08:42:33;;;;;;;;;;;;;;;2.93;80.77;98716.38;5077065;28;19927;-82
2023/03/15 08:45:00;;;;;;;;;;;;;;;3.08;80.65;98723.28;5076296;28;20734;-83
2023/03/15 08:47:26;;;;;;;;;;;;;;;2.85;80.53;98729.75;5077512;28;19924;-83
2023/03/15 08:49:53;;;;;;;;;;;;;;;2.79;80.91;98735.84;5073330;28;20364;-82
2023/03/15 08:52:20;;;;;;;;;;;;;;;2.90;81.46;98729.97;5053922;28;20332;-83
2023/03/15 08:54:45;;;;;;;;;;;;;;;3.09;81.20;98736.25;5077846;28;19924;-83
2023/03/15 08:57:11;;;;;;;;;;;;;;;3.16;81.73;98739.69;5068689;28;19916;-81
2023/03/15 08:59:37;;;;;;;;;;;;;;;2.85;79.91;98740.28;5086072;28;20327;-82
2023/03/15 09:02:02;;;;;;;;;;;;;;;2.88;80.50;98739.09;5075293;28;19924;-83
2023/03/15 09:04:27;;;;;;;;;;;;;;;3.19;80.28;98741.91;5077367;28;19924;-82
2023/03/15 09:06:53;;;;;;;;;;;;;;;3.27;81.01;98738.25;5074096;28;20375;-82
2023/03/15 09:09:18;;;;;;;;;;;;;;;3.37;78.87;98746.56;5076637;28;19924;-84
2023/03/15 09:11:43;;;;;;;;;;;;;;;3.34;79.68;98750.41;5076767;28;20015;-84
2023/03/15 09:14:08;;;;;;;;;;;;;;;3.67;79.29;98745.06;5074438;28;19920;-84
2023/03/15 09:16:34;;;;;;;;;;;;;;;3.69;79.53;98748.34;5075089;28;19932;-83
2023/03/15 09:18:59;;;;;;;;;;;;;;;3.83;78.91;98760.47;5072643;28;19929;-84
2023/03/15 09:21:26;;;;;;;;;;;;;;;3.89;78.44;98753.56;5073379;28;19927;-83
2023/03/15 09:23:51;;;;;;;;;;;;;;;3.73;78.08;98760.91;5076159;28;19966;-83
2023/03/15 09:26:17;;;;;;;;;;;;;;;4.02;78.59;98762.25;5076198;28;19916;-83
2023/03/15 09:28:42;;;;;;;;;;;;;;;4.01;78.10;98755.34;5082155;28;20015;-83
2023/03/15 09:31:07;;;;;;;;;;;;;;;4.00;76.80;98771.41;5055426;28;19924;-83
2023/03/15 09:33:33;;;;;;;;;;;;;;;3.92;77.48;98767.16;5057564;28;20333;-81
2023/03/15 09:35:58;;;;;;;;;;;;;;;4.05;77.22;98774.22;5076179;28;19939;-82
2023/03/15 09:38:24;;;;;;;;;;;;;;;4.08;77.13;98777.28;5076399;28;19921;-82
2023/03/15 09:40:51;;;;;;;;;;;;;;;3.86;76.69;98788.28;5077604;28;19938;-82
2023/03/15 09:43:35;;;;;;;;;;;;;;;4.19;77.05;98792.47;5074197;28;19966;-83
2023/03/15 09:46:05;;;;;;;;;;;;;;;4.02;76.52;98799.22;5074008;28;19931;-82
2023/03/15 09:48:42;;;;;;;;;;;;;;;4.11;76.97;98797.16;5073327;28;19927;-83
2023/03/15 09:51:12;;;;;;;;;;;;;;;3.83;75.47;98797.44;5066347;28;19938;-81
2023/03/15 09:53:58;;;;;;;;;;;;;;;3.68;75.62;98805.59;5075326;28;20414;-83
2023/03/15 09:56:23;;;;;;;;;;;;;;;3.74;78.07;98807.41;5072715;28;20328;-82
2023/03/15 09:58:51;;;;;;;;;;;;;;;3.76;76.95;98817.75;5072323;28;19967;-83
2023/03/15 10:01:16;;;;;;;;;;;;;;;4.05;76.91;98813.84;5072417;28;19925;-82
2023/03/15 10:03:45;;;;;;;;;;;;;;;3.93;76.88;98818.97;5076819;28;19939;-82
2023/03/15 10:06:13;;;;;;;;;;;;;;;3.98;77.75;98824.41;5067479;28;20287;-82
2023/03/15 10:08:38;;;;;;;;;;;;;;;3.85;76.71;98828.91;5073123;28;19916;-83
2023/03/15 10:11:19;;;;;;;;;;;;;;;3.84;77.15;98829.94;5073527;28;19994;-83
2023/03/15 10:13:44;;;;;;;;;;;;;;;3.93;77.29;98834.81;5072398;28;19921;-82
2023/03/15 10:16:19;;;;;;;;;;;;;;;4.00;77.06;98829.50;5074425;28;19963;-82
2023/03/15 10:18:56;;;;;;;;;;;;;;;4.05;76.32;98829.69;5075309;28;19973;-83
2023/03/15 10:21:40;;;;;;;;;;;;;;;4.09;76.08;98829.06;5074493;28;19923;-82
2023/03/15 10:24:11;;;;;;;;;;;;;;;4.11;76.51;98832.31;5074583;28;19946;-82
2023/03/15 10:26:38;;;;;;;;;;;;;;;4.04;77.05;98836.78;5074652;28;19920;-84
2023/03/15 10:29:09;;;;;;;;;;;;;;;3.94;76.89;98822.38;5073341;28;19942;-83
2023/03/15 10:31:38;;;;;;;;;;;;;;;4.03;77.13;98826.44;5070764;28;19927;-83
2023/03/15 10:34:03;;;;;;;;;;;;;;;4.07;77.54;98823.19;5072914;28;20312;-83
2023/03/15 10:36:32;;;;;;;;;;;;;;;3.94;76.71;98825.84;5072024;28;20542;-83
2023/03/15 10:38:57;;;;;;;;;;;;;;;3.73;74.80;98834.81;5060593;28;19916;-83
2023/03/15 10:41:35;;;;;;;;;;;;;;;4.09;77.18;98836.97;5064721;28;20403;-84
2023/03/15 10:44:05;;;;;;;;;;;;;;;4.07;77.26;98838.19;5065912;28;20418;-84
2023/03/15 10:46:31;;;;;;;;;;;;;;;4.08;76.93;98840.66;5064260;28;19921;-83
2023/03/15 10:48:58;;;;;;;;;;;;;;;4.08;76.08;98845.94;5065220;28;19966;-83
2023/03/15 10:51:28;;;;;;;;;;;;;;;3.93;75.73;98849.81;5062351;28;19928;-83
2023/03/15 10:53:55;;;;;;;;;;;;;;;3.97;76.39;98846.56;5064922;28;20367;-83
2023/03/15 10:56:22;;;;;;;;;;;;;;;4.06;76.96;98847.97;5066473;28;19928;-83
2023/03/15 10:58:50;;;;;;;;;;;;;;;3.80;75.77;98850.63;5059272;28;19925;-83
2023/03/15 11:01:24;;;;;;;;;;;;;;;4.22;75.29;98847.50;5058924;28;19998;-83
2023/03/15 11:04:12;;;;;;;;;;;;;;;4.28;74.81;98845.88;5062083;28;19935;-83
2023/03/15 11:06:43;;;;;;;;;;;;;;;4.26;74.52;98845.28;5053499;28;19917;-84
2023/03/15 11:09:13;;;;;;;;;;;;;;;4.45;75.38;98839.94;5060571;28;19982;-83
2023/03/15 11:11:53;;;;;;;;;;;;;;;4.43;75.91;98841.16;5061985;28;19987;-84
2023/03/15 11:14:19;;;;;;;;;;;;;;;4.30;75.19;98836.72;5064323;28;20404;-83
2023/03/15 11:16:50;;;;;;;;;;;;;;;4.11;75.25;98842.88;5061311;28;20017;-84
2023/03/15 11:19:18;;;;;;;;;;;;;;;4.26;75.31;98840.78;5062108;28;19920;-83
2023/03/15 11:21:44;;;;;;;;;;;;;;;3.80;69.52;98855.91;5061190;28;20320;-84
2023/03/15 11:24:18;;;;;;;;;;;;;;;3.96;73.21;98850.22;5055340;28;20138;-83
2023/03/15 11:26:50;;;;;;;;;;;;;;;4.30;75.37;98857.06;5067654;28;20290;-83
2023/03/15 11:29:18;;;;;;;;;;;;;;;3.96;75.63;98858.13;5067103;28;19920;-83
2023/03/15 11:31:43;;;;;;;;;;;;;;;4.22;75.30;98858.06;5064387;28;19963;-83
2023/03/15 11:34:21;;;;;;;;;;;;;;;4.22;73.75;98857.25;5068420;28;19925;-83
2023/03/15 11:36:49;;;;;;;;;;;;;;;4.29;72.89;98861.50;5077627;28;19963;-83
2023/03/15 11:39:18;;;;;;;;;;;;;;;4.12;73.95;98860.34;5066419;28;19916;-82
2023/03/15 11:41:50;;;;;;;;;;;;;;;4.57;74.30;98862.03;5062688;28;19924;-82
2023/03/15 11:44:34;;;;;;;;;;;;;;;4.67;72.01;98856.31;5068071;28;19916;-82
2023/03/15 11:47:02;;;;;;;;;;;;;;;4.74;72.60;98859.69;5062591;28;19984;-83
2023/03/15 11:49:33;;;;;;;;;;;;;;;4.99;73.02;98862.44;5064324;28;19927;-83
2023/03/15 11:51:58;;;;;;;;;;;;;;;5.05;72.28;98870.31;5067846;28;19950;-82
2023/03/15 11:54:24;;;;;;;;;;;;;;;4.98;71.45;98864.25;5071309;28;19916;-83
2023/03/15 11:56:50;;;;;;;;;;;;;;;4.31;67.00;98863.94;5063860;28;19955;-83
2023/03/15 11:59:19;;;;;;;;;;;;;;;4.94;72.98;98871.00;5082175;28;19916;-83
2023/03/15 12:01:47;;;;;;;;;;;;;;;5.02;72.67;98888.47;5064271;28;19916;-83
2023/03/15 12:04:24;;;;;;;;;;;;;;;5.09;72.05;98891.88;5064035;28;19999;-83
2023/03/15 12:06:53;;;;;;;;;;;;;;;4.90;72.54;98880.38;5066476;28;20604;-83
2023/03/15 12:09:30;;;;;;;;;;;;;;;4.71;73.43;98878.66;5066007;28;19917;-82
2023/03/15 12:11:56;;;;;;;;;;;;;;;4.71;74.90;98878.66;5079024;28;20313;-83
2023/03/15 12:14:30;;;;;;;;;;;;;;;4.69;74.67;98883.34;5067784;28;20431;-83
2023/03/15 12:17:15;;;;;;;;;;;;;;;4.80;74.08;98877.38;5068175;28;19939;-84
2023/03/15 12:19:40;;;;;;;;;;;;;;;4.95;73.01;98885.03;5035106;28;19916;-83
2023/03/15 12:22:12;;;;;;;;;;;;;;;5.02;74.28;98869.94;5067766;28;20023;-83
2023/03/15 12:24:38;;;;;;;;;;;;;;;4.72;71.51;98876.81;5064682;28;19917;-83
2023/03/15 12:27:05;;;;;;;;;;;;;;;5.18;73.03;98877.38;5063767;28;19920;-83
2023/03/15 12:29:32;;;;;;;;;;;;;;;5.16;73.88;98877.59;5068430;28;19967;-83
2023/03/15 12:31:57;;;;;;;;;;;;;;;4.99;71.34;98873.00;5050214;28;19932;-83
2023/03/15 12:34:36;;;;;;;;;;;;;;;5.07;72.06;98870.94;5064790;28;19969;-83
2023/03/15 12:37:04;;;;;;;;;;;;;;;5.22;73.05;98878.59;5065282;28;19921;-83
2023/03/15 12:39:35;;;;;;;;;;;;;;;5.31;72.86;98872.81;5072302;28;19940;-83
2023/03/15 12:42:01;;;;;;;;;;;;;;;5.35;72.46;98877.69;5071212;28;19970;-82
2023/03/15 12:44:26;;;;;;;;;;;;;;;5.34;71.21;98876.88;5071973;28;20295;-83
2023/03/15 12:46:52;;;;;;;;;;;;;;;5.22;72.90;98878.59;5074559;28;19927;-82
2023/03/15 12:49:24;;;;;;;;;;;;;;;5.33;71.12;98877.88;5071852;28;19913;-83
2023/03/15 12:52:08;;;;;;;;;;;;;;;5.29;68.76;98874.84;5071158;28;19939;-83
2023/03/15 12:54:42;;;;;;;;;;;;;;;5.47;70.48;98871.47;5073141;28;19920;-83
2023/03/15 12:57:12;;;;;;;;;;;;;;;5.49;70.93;98877.38;5071169;28;19939;-83